createdAt,value
2023-01-02T00:01:46.597Z,9.45
2023-01-02T00:04:15.103Z,9.41
2023-01-02T00:06:43.567Z,9.39
2023-01-02T00:09:12.772Z,9.35
2023-01-02T00:11:41.338Z,9.30
2023-01-02T00:14:09.825Z,9.24
2023-01-02T00:16:38.435Z,9.19
2023-01-02T00:19:09.132Z,9.15
2023-01-02T00:21:38.387Z,9.13
2023-01-02T00:24:07.436Z,9.12
2023-01-02T00:26:36.220Z,9.12
2023-01-02T00:29:04.804Z,9.11
2023-01-02T00:31:33.654Z,9.11
2023-01-02T00:34:02.407Z,9.11
2023-01-02T00:36:31.081Z,9.07
2023-01-02T00:38:59.640Z,9.01
2023-01-02T00:41:28.327Z,8.95
2023-01-02T00:43:56.811Z,8.91
2023-01-02T00:46:25.397Z,8.88
2023-01-02T00:48:53.973Z,8.86
2023-01-02T00:51:22.465Z,8.83
2023-01-02T00:53:51.036Z,8.76
2023-01-02T00:56:19.620Z,8.68
2023-01-02T00:58:48.716Z,8.60
2023-01-02T01:01:22.048Z,8.56
2023-01-02T01:03:50.730Z,8.50
2023-01-02T01:06:19.275Z,8.44
2023-01-02T01:08:47.726Z,8.37
2023-01-02T01:11:18.112Z,8.29
2023-01-02T01:13:46.669Z,8.23
2023-01-02T01:16:17.437Z,8.20
2023-01-02T01:18:46.565Z,8.17
2023-01-02T01:21:17.737Z,8.15
2023-01-02T01:23:51.473Z,8.14
2023-01-02T01:26:21.319Z,8.10
2023-01-02T01:28:56.704Z,8.16
2023-01-02T01:31:25.712Z,8.14
2023-01-02T01:33:54.889Z,8.13
2023-01-02T01:36:24.576Z,8.13
2023-01-02T01:38:53.083Z,8.11
2023-01-02T01:41:23.323Z,8.05
2023-01-02T01:43:54.855Z,7.99
2023-01-02T01:46:29.711Z,7.93
2023-01-02T01:49:06.153Z,7.91
2023-01-02T01:51:39.792Z,7.89
2023-01-02T01:54:11.679Z,7.89
2023-01-02T01:56:43.713Z,7.89
2023-01-02T01:59:13.832Z,7.90
2023-01-02T02:01:43.717Z,7.86
2023-01-02T02:04:14.984Z,7.86
2023-01-02T02:06:43.881Z,7.87
2023-01-02T02:09:24.747Z,7.85
2023-01-02T02:11:55.563Z,7.84
2023-01-02T02:14:24.239Z,7.80
2023-01-02T02:16:58.591Z,7.80
2023-01-02T02:20:20.789Z,7.80
2023-01-02T02:23:01.091Z,7.81
2023-01-02T02:26:08.046Z,7.77
2023-01-02T02:28:44.622Z,7.85
2023-01-02T02:31:27.686Z,7.92
2023-01-02T02:34:27.871Z,8.05
2023-01-02T02:37:23.814Z,8.15
2023-01-02T02:40:23.957Z,8.24
2023-01-02T02:43:08.289Z,8.18
2023-01-02T02:45:55.509Z,8.04
2023-01-02T02:48:28.064Z,7.94
2023-01-02T02:51:10.466Z,7.85
2023-01-02T02:53:47.848Z,7.63
2023-01-02T02:56:17.357Z,7.55
2023-01-02T02:58:47.169Z,7.53
2023-01-02T03:01:17.251Z,7.51
2023-01-02T03:03:47.096Z,7.51
2023-01-02T03:06:18.546Z,7.52
2023-01-02T03:09:06.701Z,7.52
2023-01-02T03:11:50.462Z,7.53
2023-01-02T03:14:54.133Z,7.53
2023-01-02T03:17:34.188Z,7.54
2023-01-02T03:20:11.196Z,7.57
2023-01-02T03:22:43.361Z,7.57
2023-01-02T03:25:12.944Z,7.58
2023-01-02T03:27:45.009Z,7.61
2023-01-02T03:30:22.803Z,7.57
2023-01-02T03:32:57.156Z,7.52
2023-01-02T03:35:29.205Z,7.47
2023-01-02T03:37:59.927Z,7.42
2023-01-02T03:40:33.013Z,7.37
2023-01-02T03:43:10.605Z,7.32
2023-01-02T03:46:07.271Z,7.29
2023-01-02T03:48:38.906Z,7.25
2023-01-02T03:51:07.916Z,7.22
2023-01-02T03:53:39.448Z,7.19
2023-01-02T03:56:24.327Z,7.11
2023-01-02T03:59:15.245Z,7.02
2023-01-02T04:01:55.750Z,6.93
2023-01-02T04:04:26.912Z,6.82
2023-01-02T04:07:00.465Z,6.83
2023-01-02T04:09:32.494Z,6.82
2023-01-02T04:12:07.069Z,6.77
2023-01-02T04:14:37.064Z,6.78
2023-01-02T04:17:08.171Z,6.80
2023-01-02T04:19:44.538Z,6.81
2023-01-02T04:22:29.912Z,6.83
2023-01-02T04:25:13.850Z,6.82
2023-01-02T04:28:04.179Z,6.77
2023-01-02T04:30:35.534Z,6.73
2023-01-02T04:33:07.155Z,6.69
2023-01-02T04:35:35.766Z,6.62
2023-01-02T04:38:12.209Z,6.65
2023-01-02T04:40:41.310Z,6.63
2023-01-02T04:43:18.993Z,6.57
2023-01-02T04:45:49.014Z,6.63
2023-01-02T04:48:17.996Z,6.64
2023-01-02T04:50:46.586Z,6.64
2023-01-02T04:53:15.758Z,6.58
2023-01-02T04:55:44.162Z,6.64
2023-01-02T04:58:12.742Z,6.62
2023-01-02T05:00:41.443Z,6.62
2023-01-02T05:03:10.053Z,6.62
2023-01-02T05:05:38.529Z,6.63
2023-01-02T05:08:12.085Z,6.65
2023-01-02T05:10:44.367Z,6.67
2023-01-02T05:13:12.950Z,6.69
2023-01-02T05:15:41.782Z,6.69
2023-01-02T05:18:11.372Z,6.69
2023-01-02T05:20:39.784Z,6.68
2023-01-02T05:23:30.074Z,6.66
2023-01-02T05:25:59.518Z,6.65
2023-01-02T05:28:30.205Z,6.62
2023-01-02T05:31:02.433Z,6.60
2023-01-02T05:33:30.952Z,6.59
2023-01-02T05:36:00.199Z,6.60
2023-01-02T05:38:30.693Z,6.64
2023-01-02T05:41:07.232Z,6.65
2023-01-02T05:43:37.733Z,6.65
2023-01-02T05:46:14.327Z,6.64
2023-01-02T05:48:43.350Z,6.60
2023-01-02T05:51:14.133Z,6.58
2023-01-02T05:53:43.426Z,6.53
2023-01-02T05:56:16.411Z,6.48
2023-01-02T05:58:47.406Z,6.41
2023-01-02T06:01:21.119Z,6.39
2023-01-02T06:03:52.076Z,6.40
2023-01-02T06:06:23.439Z,6.38
2023-01-02T06:08:52.345Z,6.40
2023-01-02T06:11:21.138Z,6.45
2023-01-02T06:13:49.652Z,6.50
2023-01-02T06:16:18.452Z,6.53
2023-01-02T06:18:47.279Z,6.56
2023-01-02T06:21:17.380Z,6.58
2023-01-02T06:23:46.127Z,6.58
2023-01-02T06:26:16.934Z,6.57
2023-01-02T06:28:46.730Z,6.56
2023-01-02T06:31:17.032Z,6.56
2023-01-02T06:33:45.430Z,6.51
2023-01-02T06:36:18.438Z,6.48
2023-01-02T06:38:47.134Z,6.46
2023-01-02T06:41:16.662Z,6.41
2023-01-02T06:43:49.855Z,6.40
2023-01-02T06:46:19.776Z,6.37
2023-01-02T06:48:48.858Z,6.38
2023-01-02T06:51:20.773Z,6.43
2023-01-02T06:54:09.151Z,6.49
2023-01-02T06:57:11.121Z,6.56
2023-01-02T07:00:13.003Z,6.58
2023-01-02T07:03:15.046Z,6.59
2023-01-02T07:06:19.005Z,6.66
2023-01-02T07:09:21.100Z,6.73
2023-01-02T07:12:24.020Z,6.80
2023-01-02T07:15:26.161Z,6.82
2023-01-02T07:18:28.027Z,6.86
2023-01-02T07:21:30.128Z,6.90
2023-01-02T07:24:32.064Z,6.89
2023-01-02T07:27:34.075Z,6.89
2023-01-02T07:30:36.118Z,6.88
2023-01-02T07:33:38.078Z,6.89
2023-01-02T07:36:40.084Z,6.94
2023-01-02T07:39:42.008Z,6.96
2023-01-02T07:42:44.089Z,7.11
2023-01-02T07:45:50.305Z,7.15
2023-01-02T07:48:53.220Z,7.25
2023-01-02T07:51:55.024Z,7.28
2023-01-02T07:54:57.106Z,7.29
2023-01-02T07:58:00.107Z,7.30
2023-01-02T08:01:05.713Z,7.30
2023-01-02T08:04:08.071Z,7.32
2023-01-02T08:07:10.005Z,7.33
2023-01-02T08:10:12.122Z,7.38
2023-01-02T08:13:14.119Z,7.45
2023-01-02T08:16:21.142Z,7.51
2023-01-02T08:19:23.094Z,7.53
2023-01-02T08:22:05.130Z,7.56
2023-01-02T08:24:33.887Z,7.56
2023-01-02T08:27:02.258Z,7.53
2023-01-02T08:29:30.802Z,7.60
2023-01-02T08:31:59.782Z,7.64
2023-01-02T08:34:28.935Z,7.69
2023-01-02T08:36:57.622Z,7.74
2023-01-02T08:39:25.956Z,7.80
2023-01-02T08:41:54.953Z,7.87
2023-01-02T08:44:23.478Z,7.98
2023-01-02T08:46:52.116Z,8.08
2023-01-02T08:49:20.948Z,8.16
2023-01-02T08:51:49.379Z,8.24
2023-01-02T08:54:17.718Z,8.31
2023-01-02T08:56:47.011Z,8.37
2023-01-02T08:59:15.412Z,8.36
2023-01-02T09:01:44.164Z,8.42
2023-01-02T09:04:13.456Z,8.49
2023-01-02T09:06:44.479Z,8.48
2023-01-02T09:09:15.538Z,8.61
2023-01-02T09:11:50.874Z,8.63
2023-01-02T09:14:20.860Z,8.65
2023-01-02T09:16:50.688Z,8.69
2023-01-02T09:19:19.364Z,8.73
2023-01-02T09:21:48.010Z,8.76
2023-01-02T09:24:16.716Z,8.78
2023-01-02T09:26:45.326Z,8.78
2023-01-02T09:29:14.905Z,8.75
2023-01-02T09:31:43.635Z,8.79
2023-01-02T09:34:12.870Z,8.86
2023-01-02T09:36:41.588Z,8.84
2023-01-02T09:39:10.136Z,8.80
2023-01-02T09:41:51.069Z,8.80
2023-01-02T09:44:39.571Z,8.77
2023-01-02T09:47:16.469Z,8.71
2023-01-02T09:50:14.715Z,8.75
2023-01-02T09:52:51.108Z,8.72
2023-01-02T09:55:43.599Z,8.72
2023-01-02T09:58:18.068Z,8.73
2023-01-02T10:00:51.276Z,8.72
2023-01-02T10:03:37.275Z,8.75
2023-01-02T10:06:10.157Z,8.75
2023-01-02T10:09:08.375Z,8.75
2023-01-02T10:12:00.720Z,8.78
2023-01-02T10:14:44.320Z,8.82
2023-01-02T10:17:15.948Z,8.96
2023-01-02T10:19:51.714Z,9.06
2023-01-02T10:22:28.117Z,9.16
2023-01-02T10:25:00.361Z,9.24
2023-01-02T10:27:33.403Z,9.25
2023-01-02T10:30:15.069Z,9.36
2023-01-02T10:32:50.153Z,9.39
2023-01-02T10:35:31.080Z,9.41
2023-01-02T10:38:00.004Z,9.45
2023-01-02T10:40:29.275Z,9.48
2023-01-02T10:43:00.010Z,9.53
2023-01-02T10:45:28.799Z,9.57
2023-01-02T10:47:57.377Z,9.61
2023-01-02T10:50:32.692Z,9.63
2023-01-02T10:53:29.460Z,9.67
2023-01-02T10:56:02.038Z,9.71
2023-01-02T10:58:31.847Z,9.74
2023-01-02T11:01:26.362Z,9.77
2023-01-02T11:03:55.022Z,9.80
2023-01-02T11:06:29.134Z,9.82
2023-01-02T11:09:23.078Z,9.85
2023-01-02T11:11:56.736Z,9.87
2023-01-02T11:14:29.188Z,9.89
2023-01-02T11:17:20.871Z,9.91
2023-01-02T11:19:54.412Z,9.93
2023-01-02T11:22:33.036Z,9.95
2023-01-02T11:25:07.739Z,9.98
2023-01-02T11:27:42.707Z,10.02
2023-01-02T11:30:25.721Z,10.04
2023-01-02T11:33:19.807Z,10.14
2023-01-02T11:35:48.823Z,10.20
2023-01-02T11:38:29.383Z,10.27
2023-01-02T11:41:01.475Z,10.31
2023-01-02T11:43:49.565Z,10.41
2023-01-02T11:46:36.380Z,10.47
2023-01-02T11:49:14.177Z,10.48
2023-01-02T11:51:42.857Z,10.47
2023-01-02T11:54:19.536Z,10.47
2023-01-02T11:56:50.085Z,10.45
2023-01-02T11:59:40.489Z,10.42
2023-01-02T12:02:18.288Z,10.38
2023-01-02T12:04:46.841Z,10.36
2023-01-02T12:07:34.263Z,10.33
2023-01-02T12:10:32.019Z,10.29
2023-01-02T12:13:35.536Z,10.23
2023-01-02T12:16:19.189Z,10.20
2023-01-02T12:18:53.402Z,10.16
2023-01-02T12:21:51.075Z,10.14
2023-01-02T12:24:46.966Z,10.07
2023-01-02T12:27:24.765Z,10.06
2023-01-02T12:30:02.216Z,10.04
2023-01-02T12:32:41.493Z,10.03
2023-01-02T12:35:34.159Z,10.02
2023-01-02T12:38:06.024Z,10.03
2023-01-02T12:40:46.677Z,10.06
2023-01-02T12:43:44.340Z,10.08
2023-01-02T12:46:49.979Z,10.12
2023-01-02T12:49:45.800Z,10.13
2023-01-02T12:52:35.275Z,10.12
2023-01-02T12:55:03.856Z,10.10
2023-01-02T12:58:01.628Z,10.07
2023-01-02T13:00:52.554Z,10.03
2023-01-02T13:03:43.819Z,9.97
2023-01-02T13:06:43.800Z,9.94
2023-01-02T13:09:23.176Z,9.88
2023-01-02T13:12:14.836Z,9.87
2023-01-02T13:15:00.735Z,9.86
2023-01-02T13:17:47.761Z,9.86
2023-01-02T13:20:22.293Z,9.85
2023-01-02T13:23:20.125Z,9.82
2023-01-02T13:25:52.108Z,9.77
2023-01-02T13:28:21.110Z,9.73
2023-01-02T13:31:00.993Z,9.67
2023-01-02T13:33:43.464Z,9.63
2023-01-02T13:36:21.781Z,9.61
2023-01-02T13:38:53.849Z,9.58
2023-01-02T13:41:22.591Z,9.55
2023-01-02T13:44:00.287Z,9.54
2023-01-02T13:47:02.590Z,9.52
2023-01-02T13:49:26.696Z,9.49
2023-01-02T13:52:00.190Z,9.48
2023-01-02T13:54:37.052Z,9.45
2023-01-02T13:57:27.527Z,9.42
2023-01-02T14:00:17.204Z,9.36
2023-01-02T14:03:20.719Z,9.32
2023-01-02T14:05:58.869Z,9.25
2023-01-02T14:08:40.305Z,9.21
2023-01-02T14:11:18.176Z,9.18
2023-01-02T14:13:48.980Z,9.15
2023-01-02T14:16:23.293Z,9.13
2023-01-02T14:19:25.020Z,9.11
2023-01-02T14:21:59.626Z,9.09
2023-01-02T14:24:40.952Z,9.06
2023-01-02T14:27:16.660Z,9.02
2023-01-02T14:30:03.543Z,8.97
2023-01-02T14:32:34.959Z,8.90
2023-01-02T14:35:06.972Z,8.87
2023-01-02T14:37:39.853Z,8.81
2023-01-02T14:40:18.327Z,8.76
2023-01-02T14:43:12.892Z,8.72
2023-01-02T14:45:47.361Z,8.65
2023-01-02T14:48:21.946Z,8.61
2023-01-02T14:50:54.611Z,8.57
2023-01-02T14:53:54.729Z,8.54
2023-01-02T14:56:30.064Z,8.51
2023-01-02T14:58:59.879Z,8.51
2023-01-02T15:01:43.002Z,8.47
2023-01-02T15:04:25.159Z,8.44
2023-01-02T15:07:28.303Z,8.41
2023-01-02T15:10:12.248Z,8.37
2023-01-02T15:13:07.857Z,8.23
2023-01-02T15:15:37.517Z,8.32
2023-01-02T15:18:22.696Z,8.31
2023-01-02T15:20:55.178Z,8.30
2023-01-02T15:23:26.176Z,8.28
2023-01-02T15:26:32.379Z,8.26
2023-01-02T15:28:43.713Z,8.23
2023-01-02T15:31:14.950Z,8.22
2023-01-02T15:33:43.525Z,8.19
2023-01-02T15:36:18.455Z,8.16
2023-01-02T15:38:47.762Z,8.14
2023-01-02T15:41:18.468Z,8.14
2023-01-02T15:44:06.426Z,8.15
2023-01-02T15:46:35.142Z,8.14
2023-01-02T15:49:05.176Z,8.13
2023-01-02T15:51:40.854Z,8.10
2023-01-02T15:54:14.538Z,8.08
2023-01-02T15:56:43.138Z,8.05
2023-01-02T15:59:26.051Z,8.05
2023-01-02T16:01:54.548Z,8.05
2023-01-02T16:04:26.265Z,8.06
2023-01-02T16:06:56.072Z,8.07
2023-01-02T16:09:29.550Z,8.07
2023-01-02T16:12:02.482Z,8.08
2023-01-02T16:14:40.112Z,8.08
2023-01-02T16:17:29.174Z,8.08
2023-01-02T16:20:00.516Z,8.09
2023-01-02T16:22:46.876Z,8.07
2023-01-02T16:25:23.227Z,8.05
2023-01-02T16:28:36.032Z,8.03
2023-01-02T16:31:14.988Z,8.02
2023-01-02T16:33:45.940Z,8.01
2023-01-02T16:36:14.455Z,7.97
2023-01-02T16:38:59.086Z,7.97
2023-01-02T16:41:37.083Z,7.96
2023-01-02T16:44:17.376Z,7.93
2023-01-02T16:46:49.284Z,7.90
2023-01-02T16:49:23.166Z,7.87
2023-01-02T16:51:53.847Z,7.85
2023-01-02T16:54:22.355Z,7.84
2023-01-02T16:56:51.058Z,7.83
2023-01-02T16:59:19.641Z,7.78
2023-01-02T17:01:48.293Z,7.82
2023-01-02T17:04:16.926Z,7.82
2023-01-02T17:06:45.444Z,7.80
2023-01-02T17:09:13.959Z,7.78
2023-01-02T17:12:00.352Z,7.72
2023-01-02T17:14:33.381Z,7.66
2023-01-02T17:17:01.830Z,7.63
2023-01-02T17:19:31.080Z,7.62
2023-01-02T17:21:59.628Z,7.60
2023-01-02T17:24:27.916Z,7.59
2023-01-02T17:26:56.676Z,7.60
2023-01-02T17:29:25.035Z,7.59
2023-01-02T17:31:53.358Z,7.55
2023-01-02T17:34:21.752Z,7.61
2023-01-02T17:36:50.300Z,7.62
2023-01-02T17:39:19.076Z,7.60
2023-01-02T17:41:49.463Z,7.61
2023-01-02T17:44:19.312Z,7.60
2023-01-02T17:49:38.840Z,7.58
2023-01-02T17:52:07.806Z,7.55
2023-01-02T17:54:36.308Z,7.51
2023-01-02T17:57:05.169Z,7.49
2023-01-02T17:59:35.184Z,7.45
2023-01-02T18:02:03.887Z,7.41
2023-01-02T18:04:32.488Z,7.39
2023-01-02T18:07:04.120Z,7.39
2023-01-02T18:09:32.953Z,7.36
2023-01-02T18:12:01.376Z,7.41
2023-01-02T18:14:29.769Z,7.42
2023-01-02T18:16:59.921Z,7.44
2023-01-02T18:19:36.859Z,7.46
2023-01-02T18:22:17.120Z,7.47
2023-01-02T18:24:53.209Z,7.46
2023-01-02T18:27:29.492Z,7.43
2023-01-02T18:30:22.900Z,7.38
2023-01-02T18:33:11.407Z,7.38
2023-01-02T18:35:57.269Z,7.35
2023-01-02T18:38:32.151Z,7.33
2023-01-02T18:41:01.199Z,7.32
2023-01-02T18:43:33.456Z,7.33
2023-01-02T18:46:12.441Z,7.37
2023-01-02T18:48:41.012Z,7.41
2023-01-02T18:51:22.740Z,7.45
2023-01-02T18:53:53.780Z,7.51
2023-01-02T18:56:25.027Z,7.54
2023-01-02T18:59:42.255Z,7.59
2023-01-02T19:02:34.660Z,7.62
2023-01-02T19:05:23.919Z,7.61
2023-01-02T19:07:53.965Z,7.59
2023-01-02T19:10:36.978Z,7.55
2023-01-02T19:13:23.190Z,7.51
2023-01-02T19:15:56.923Z,7.49
2023-01-02T19:18:28.140Z,7.48
2023-01-02T19:21:18.527Z,7.48
2023-01-02T19:23:58.691Z,7.49
2023-01-02T19:27:03.524Z,7.53
2023-01-02T19:29:33.257Z,7.57
2023-01-02T19:32:20.656Z,7.57
2023-01-02T19:34:54.253Z,7.54
2023-01-02T19:37:41.700Z,7.50
2023-01-02T19:40:21.736Z,7.43
2023-01-02T19:42:52.171Z,7.39
2023-01-02T19:45:26.000Z,7.37
2023-01-02T19:47:54.653Z,7.33
2023-01-02T19:50:25.289Z,7.30
2023-01-02T19:52:54.310Z,7.26
2023-01-02T19:55:24.949Z,7.23
2023-01-02T19:57:53.496Z,7.20
2023-01-02T20:00:22.231Z,7.20
2023-01-02T20:02:52.458Z,7.20
2023-01-02T20:05:23.498Z,7.22
2023-01-02T20:07:53.303Z,7.26
2023-01-02T20:10:22.477Z,7.27
2023-01-02T20:12:51.568Z,7.29
2023-01-02T20:15:23.855Z,7.29
2023-01-02T20:17:53.229Z,7.27
2023-01-02T20:20:24.423Z,7.23
2023-01-02T20:22:55.325Z,7.20
2023-01-02T20:25:26.675Z,7.17
2023-01-02T20:27:56.639Z,7.15
2023-01-02T20:30:26.130Z,7.14
2023-01-02T20:32:56.088Z,7.13
2023-01-02T20:35:24.382Z,7.13
2023-01-02T20:37:52.901Z,7.15
2023-01-02T20:40:21.418Z,7.16
2023-01-02T20:42:50.004Z,7.18
2023-01-02T20:45:18.712Z,7.18
2023-01-02T20:47:47.275Z,7.24
2023-01-02T20:50:15.743Z,7.22
2023-01-02T20:52:44.251Z,7.25
2023-01-02T20:55:12.964Z,7.24
2023-01-02T20:57:41.628Z,7.19
2023-01-02T21:00:11.080Z,7.26
2023-01-02T21:02:39.824Z,7.25
2023-01-02T21:05:09.020Z,7.24
2023-01-02T21:07:39.007Z,7.20
2023-01-02T21:10:08.392Z,7.17
2023-01-02T21:12:55.121Z,7.13
2023-01-02T21:15:42.268Z,7.09
2023-01-02T21:18:23.730Z,7.07
2023-01-02T21:20:58.404Z,7.07
2023-01-02T21:23:28.225Z,7.06
2023-01-02T21:25:57.157Z,7.06
2023-01-02T21:28:25.772Z,7.05
2023-01-02T21:30:54.476Z,7.02
2023-01-02T21:33:24.648Z,6.99
2023-01-02T21:35:54.604Z,6.98
2023-01-02T21:38:24.310Z,6.95
2023-01-02T21:40:53.215Z,6.91
2023-01-02T21:43:22.798Z,6.88
2023-01-02T21:45:51.660Z,6.84
2023-01-02T21:48:20.342Z,6.73
2023-01-02T21:50:49.027Z,6.78
2023-01-02T21:53:17.605Z,6.78
2023-01-02T21:55:47.316Z,6.78
2023-01-02T21:58:15.864Z,6.78
2023-01-02T22:00:47.065Z,6.78
2023-01-02T22:03:16.207Z,6.77
2023-01-02T22:05:44.922Z,6.79
2023-01-02T22:08:13.615Z,6.80
2023-01-02T22:10:42.113Z,6.80
2023-01-02T22:13:10.675Z,6.85
2023-01-02T22:15:39.309Z,6.82
2023-01-02T22:18:07.800Z,6.75
2023-01-02T22:20:36.338Z,6.76
2023-01-02T22:23:04.801Z,6.72
2023-01-02T22:25:33.596Z,6.62
2023-01-02T22:28:02.169Z,6.58
2023-01-02T22:30:34.777Z,6.63
2023-01-02T22:33:04.599Z,6.63
2023-01-02T22:35:33.946Z,6.63
2023-01-02T22:38:02.552Z,6.62
2023-01-02T22:40:31.070Z,6.61
2023-01-02T22:43:02.111Z,6.59
2023-01-02T22:45:44.683Z,6.60
2023-01-02T22:48:25.823Z,6.62
2023-01-02T22:50:57.542Z,6.66
2023-01-02T22:53:34.171Z,6.71
2023-01-02T22:56:10.892Z,6.76
2023-01-02T22:58:39.446Z,6.79
2023-01-02T23:01:17.598Z,6.79
2023-01-02T23:03:47.466Z,6.80
2023-01-02T23:06:21.873Z,6.83
2023-01-02T23:08:52.315Z,6.85
2023-01-02T23:11:21.201Z,6.89
2023-01-02T23:13:54.707Z,6.94
2023-01-02T23:16:44.005Z,6.99
2023-01-02T23:19:15.555Z,6.95
2023-01-02T23:21:55.593Z,7.03
2023-01-02T23:24:31.384Z,7.04
2023-01-02T23:27:03.635Z,6.99
2023-01-02T23:29:32.624Z,7.02
2023-01-02T23:32:02.105Z,6.99
2023-01-02T23:34:30.822Z,6.90
2023-01-02T23:37:00.485Z,6.81
2023-01-02T23:39:31.158Z,6.72
2023-01-02T23:41:59.846Z,6.65
2023-01-02T23:44:28.419Z,6.57
2023-01-02T23:46:57.056Z,6.53
2023-01-02T23:49:25.785Z,6.50
2023-01-02T23:51:54.252Z,6.50
2023-01-02T23:54:22.749Z,6.50
2023-01-02T23:56:51.732Z,6.50
2023-01-02T23:59:22.655Z,6.50
